Time;durP1;ratioP1;P1;durP2;ratioP2;P2;SDS_P1;SDS_P2;PMS_P1;PMS_P2;Temp;Humidity;BMP_temperature;BMP_pressure;BME280_temperature;BME280_humidity;BME280_pressure;Samples;Min_cycle;Max_cycle;Signal;HPM_P1;HPM_P2
2021/12/22 00:01:37;;;;;;;12.40;5.38;;;0.40;98.10;;;;;;4250496;27;20035;-85
2021/12/22 00:03:40;;;;;;;11.48;4.72;;;0.90;98.40;;;;;;4253003;27;20051;-85
2021/12/22 00:05:46;;;;;;;10.52;4.50;;;0.90;98.30;;;;;;4236953;27;20047;-85
2021/12/22 00:07:47;;;;;;;10.05;4.18;;;-0.10;98.00;;;;;;4219171;28;20070;-85
2021/12/22 00:09:48;;;;;;;8.52;3.90;;;1.10;98.40;;;;;;4236144;28;20454;-85
2021/12/22 00:11:50;;;;;;;9.73;4.32;;;-0.20;98.20;;;;;;4235674;28;20054;-86
2021/12/22 00:13:52;;;;;;;7.55;4.03;;;-0.60;98.20;;;;;;4252996;27;20538;-86
2021/12/22 00:15:52;;;;;;;15.35;4.93;;;-0.30;98.20;;;;;;4253055;27;20078;-85
2021/12/22 00:17:54;;;;;;;10.98;4.28;;;0.10;98.90;;;;;;4268271;27;20532;-85
2021/12/22 00:19:56;;;;;;;10.35;4.35;;;0.90;98.80;;;;;;4238386;27;20451;-86
2021/12/22 00:21:58;;;;;;;11.68;4.68;;;0.60;98.80;;;;;;4254871;27;20122;-86
2021/12/22 00:24:00;;;;;;;13.50;5.72;;;-0.50;98.40;;;;;;4220394;28;20036;-86
2021/12/22 00:26:04;;;;;;;10.65;4.55;;;0.20;98.60;;;;;;4236772;28;20047;-86
2021/12/22 00:28:05;;;;;;;12.50;4.25;;;0.90;98.70;;;;;;4256095;27;20043;-86
2021/12/22 00:30:10;;;;;;;13.98;3.85;;;0.80;98.90;;;;;;4237629;28;20515;-86
2021/12/22 00:32:13;;;;;;;11.52;4.97;;;-0.40;98.20;;;;;;4239074;28;20487;-86
2021/12/22 00:34:16;;;;;;;10.77;4.18;;;0.40;98.60;;;;;;4250686;28;20044;-85
2021/12/22 00:36:21;;;;;;;14.55;4.80;;;-0.10;98.50;;;;;;4267008;27;20067;-85
2021/12/22 00:38:28;;;;;;;7.88;3.58;;;0.80;98.80;;;;;;4244575;28;20040;-85
2021/12/22 00:40:29;;;;;;;13.50;5.88;;;-1.40;98.40;;;;;;4251774;28;20095;-85
2021/12/22 00:42:33;;;;;;;10.77;4.07;;;-0.40;98.70;;;;;;4246985;28;20046;-85
2021/12/22 00:44:40;;;;;;;10.18;5.07;;;-0.10;98.60;;;;;;4241050;28;20564;-85
2021/12/22 00:47:18;;;;;;;13.52;5.30;;;-0.90;98.40;;;;;;4239056;28;20439;-86
2021/12/22 00:49:27;;;;;;;9.05;3.92;;;-0.50;98.70;;;;;;4221294;28;20052;-85
2021/12/22 00:51:29;;;;;;;9.93;4.78;;;0.20;99.00;;;;;;4239160;28;20043;-85
2021/12/22 00:53:36;;;;;;;11.73;4.45;;;-0.70;98.80;;;;;;4238192;28;20047;-85
2021/12/22 00:55:37;;;;;;;10.27;4.55;;;-1.60;98.60;;;;;;4237034;28;20044;-85
2021/12/22 00:57:39;;;;;;;10.43;4.93;;;-0.70;99.00;;;;;;4237154;28;20054;-85
2021/12/22 00:59:39;;;;;;;19.58;5.80;;;-0.70;99.10;;;;;;4242066;27;20539;-85
2021/12/22 01:01:41;;;;;;;10.35;5.80;;;-0.40;99.30;;;;;;4236516;28;20075;-85
2021/12/22 01:03:42;;;;;;;11.80;5.80;;;0.30;99.50;;;;;;4253006;27;20054;-85
2021/12/22 01:05:44;;;;;;;11.00;4.75;;;0.30;99.50;;;;;;4272367;27;20068;-85
2021/12/22 01:07:48;;;;;;;9.77;5.03;;;-0.80;99.20;;;;;;4272293;27;20489;-85
2021/12/22 01:09:55;;;;;;;15.23;5.35;;;-0.30;99.10;;;;;;4236748;28;20043;-85
2021/12/22 01:11:57;;;;;;;10.80;5.28;;;-0.80;99.30;;;;;;4254518;27;20043;-85
2021/12/22 01:13:59;;;;;;;16.02;6.38;;;0.30;99.40;;;;;;4237396;28;20123;-85
2021/12/22 01:15:59;;;;;;;14.32;5.97;;;-0.90;99.20;;;;;;4254251;27;20035;-85
2021/12/22 01:18:07;;;;;;;16.35;6.18;;;-0.30;99.50;;;;;;4220790;28;20095;-85
2021/12/22 01:20:22;;;;;;;13.05;6.05;;;-1.00;99.50;;;;;;4235645;28;20112;-85
2021/12/22 01:22:34;;;;;;;11.85;5.88;;;-0.90;99.30;;;;;;4257738;27;20139;-85
2021/12/22 01:24:35;;;;;;;9.75;4.88;;;0.20;99.70;;;;;;4235311;28;20048;-85
2021/12/22 01:26:44;;;;;;;12.88;5.60;;;-0.40;99.70;;;;;;4271492;27;20380;-85
2021/12/22 01:28:45;;;;;;;13.45;5.00;;;-0.30;99.60;;;;;;4262814;27;20118;-85
2021/12/22 01:30:48;;;;;;;12.60;5.57;;;-1.20;99.50;;;;;;4218142;28;20511;-85
2021/12/22 01:32:54;;;;;;;15.52;5.15;;;-1.10;99.50;;;;;;4235840;28;20459;-85
2021/12/22 01:34:56;;;;;;;14.07;5.35;;;-0.40;99.40;;;;;;4235571;28;20120;-85
2021/12/22 01:36:56;;;;;;;9.32;4.95;;;-1.00;99.40;;;;;;4231688;28;20051;-86
2021/12/22 01:39:01;;;;;;;8.82;4.78;;;-1.60;99.30;;;;;;4251005;27;20051;-85
2021/12/22 01:41:02;;;;;;;11.48;5.18;;;-0.40;99.50;;;;;;4229924;28;20051;-85
2021/12/22 01:43:05;;;;;;;13.63;4.85;;;-1.30;99.50;;;;;;4237104;28;20079;-85
2021/12/22 01:45:30;;;;;;;15.90;6.25;;;-1.40;99.40;;;;;;4272391;27;20095;-85
2021/12/22 01:50:06;;;;;;;12.10;5.43;;;-1.10;99.70;;;;;;4243500;28;20083;-84
2021/12/22 01:52:08;;;;;;;12.02;5.35;;;-1.00;99.90;;;;;;4237445;28;20039;-85
2021/12/22 01:54:21;;;;;;;12.50;5.25;;;-1.40;99.90;;;;;;4220427;28;20071;-85
2021/12/22 01:56:24;;;;;;;10.65;5.13;;;-1.40;99.50;;;;;;4237728;28;20098;-85
2021/12/22 01:58:40;;;;;;;12.50;6.18;;;-1.40;99.90;;;;;;4225495;28;20056;-85
2021/12/22 02:00:44;;;;;;;14.23;6.57;;;-0.30;99.70;;;;;;4258082;27;20058;-85
2021/12/22 02:02:48;;;;;;;10.95;5.40;;;-1.30;99.90;;;;;;4223788;28;20048;-85
2021/12/22 02:04:49;;;;;;;12.38;6.03;;;-0.50;99.70;;;;;;4258576;27;20063;-85
2021/12/22 02:06:52;;;;;;;12.20;5.72;;;-0.70;99.80;;;;;;4240762;28;20048;-85
2021/12/22 02:08:54;;;;;;;16.90;5.95;;;-0.20;99.90;;;;;;4222974;28;20440;-85
2021/12/22 02:10:55;;;;;;;14.27;5.85;;;-1.10;99.70;;;;;;4223317;28;20127;-86
2021/12/22 02:12:59;;;;;;;12.95;5.40;;;-0.90;99.70;;;;;;4240466;27;20047;-85
2021/12/22 02:15:03;;;;;;;13.13;5.80;;;-1.40;99.70;;;;;;4258396;27;20039;-85
2021/12/22 02:17:08;;;;;;;9.75;5.30;;;-1.60;99.50;;;;;;4258228;27;20035;-85
2021/12/22 02:19:11;;;;;;;10.50;5.43;;;-0.90;99.80;;;;;;4224292;28;20044;-85
2021/12/22 02:21:14;;;;;;;15.18;5.55;;;-1.50;99.50;;;;;;4258936;27;20103;-85
2021/12/22 02:23:16;;;;;;;16.50;6.03;;;-0.80;99.70;;;;;;4270287;27;20039;-85
2021/12/22 02:25:29;;;;;;;15.20;6.72;;;-1.50;99.50;;;;;;4240828;28;20130;-85
2021/12/22 02:27:44;;;;;;;11.35;5.07;;;-0.20;99.90;;;;;;4258373;27;20055;-85
2021/12/22 02:29:49;;;;;;;15.80;5.93;;;-0.50;99.90;;;;;;4242491;27;20047;-85
2021/12/22 02:32:08;;;;;;;11.23;5.85;;;-0.40;99.90;;;;;;4259322;27;20058;-86
2021/12/22 02:34:16;;;;;;;11.38;6.05;;;-1.50;99.60;;;;;;4225993;28;20108;-85
2021/12/22 02:38:20;;;;;;;15.40;6.60;;;-1.70;99.70;;;;;;4241213;28;20067;-85
2021/12/22 02:40:27;;;;;;;13.15;5.50;;;-1.60;99.80;;;;;;4263072;27;20042;-84
2021/12/22 02:42:29;;;;;;;13.73;6.15;;;-1.60;99.70;;;;;;4276033;27;20463;-84
2021/12/22 02:44:38;;;;;;;14.95;5.70;;;-1.40;99.90;;;;;;4257959;27;20059;-85
2021/12/22 02:46:41;;;;;;;11.52;5.90;;;-1.10;99.90;;;;;;4258049;27;20112;-84
2021/12/22 02:48:42;;;;;;;15.02;6.35;;;-1.60;99.90;;;;;;4257192;27;20076;-85
2021/12/22 02:50:55;;;;;;;9.88;5.53;;;-1.70;99.90;;;;;;4275677;27;20451;-84
2021/12/22 02:53:06;;;;;;;11.05;5.85;;;-1.70;99.70;;;;;;4267296;27;20046;-85
2021/12/22 02:55:08;;;;;;;12.15;6.03;;;-2.00;99.90;;;;;;4240450;28;20476;-85
2021/12/22 02:57:24;;;;;;;18.30;6.57;;;-1.70;99.90;;;;;;4241081;28;20051;-84
2021/12/22 03:05:51;;;;;;;13.55;6.50;;;-0.90;99.90;;;;;;4243743;28;20090;-85
2021/12/22 03:07:54;;;;;;;14.43;6.38;;;-1.00;99.90;;;;;;4244019;28;20051;-85
2021/12/22 03:10:14;;;;;;;14.02;6.10;;;-2.70;99.40;;;;;;4227516;28;20052;-85
2021/12/22 03:12:17;;;;;;;13.98;6.05;;;-1.40;99.80;;;;;;4260497;27;20482;-85
2021/12/22 03:14:30;;;;;;;12.80;5.63;;;-1.90;99.90;;;;;;4247299;28;20103;-85
2021/12/22 03:16:35;;;;;;;18.45;5.85;;;-1.70;99.90;;;;;;4282176;27;20451;-85
2021/12/22 03:18:36;;;;;;;18.40;7.18;;;-1.10;99.90;;;;;;4263560;27;20058;-85
2021/12/22 03:20:38;;;;;;;14.15;6.05;;;-0.60;99.90;;;;;;4261117;27;20058;-85
2021/12/22 03:22:45;;;;;;;13.93;6.28;;;-1.60;99.90;;;;;;4253721;27;20040;-85
2021/12/22 03:24:48;;;;;;;16.40;6.40;;;-1.90;99.90;;;;;;4242392;28;20047;-85
2021/12/22 03:26:49;;;;;;;14.15;6.15;;;-1.90;99.90;;;;;;4260382;27;20054;-85
2021/12/22 03:28:51;;;;;;;13.63;5.70;;;-1.40;99.90;;;;;;4269308;27;20042;-85
2021/12/22 03:30:53;;;;;;;16.30;6.75;;;-0.80;99.90;;;;;;4243240;28;20086;-85
2021/12/22 03:32:55;;;;;;;15.82;5.80;;;-0.80;99.90;;;;;;4225738;28;20048;-85
2021/12/22 03:34:57;;;;;;;18.58;6.40;;;-2.00;99.90;;;;;;4252339;27;20469;-85
2021/12/22 03:36:58;;;;;;;14.00;5.53;;;-1.20;99.90;;;;;;4242819;28;20063;-85
2021/12/22 03:39:06;;;;;;;13.98;6.10;;;-1.60;99.90;;;;;;4243226;28;20048;-85
2021/12/22 03:41:14;;;;;;;14.23;6.30;;;-2.00;99.90;;;;;;4261059;27;20069;-85
2021/12/22 03:43:23;;;;;;;12.52;5.72;;;-1.20;99.90;;;;;;4260696;27;20039;-85
2021/12/22 03:45:26;;;;;;;;;;;-2.00;99.90;;;;;;4231291;28;20040;-85
2021/12/22 03:47:32;;;;;;;17.35;5.95;;;-2.70;99.90;;;;;;4241566;28;19959;-85
2021/12/22 03:49:35;;;;;;;12.55;5.90;;;-1.60;99.90;;;;;;4259990;27;20050;-85
2021/12/22 03:51:38;;;;;;;11.95;6.07;;;-2.10;99.90;;;;;;4243438;28;20107;-85
2021/12/22 03:53:40;;;;;;;14.07;5.93;;;-1.00;99.90;;;;;;4259064;27;20152;-85
2021/12/22 03:55:45;;;;;;;14.77;6.10;;;-2.10;99.90;;;;;;4259511;27;20135;-85
2021/12/22 03:57:46;;;;;;;13.45;5.82;;;-0.70;99.90;;;;;;4259658;27;20111;-86
2021/12/22 03:59:48;;;;;;;15.02;5.88;;;-2.10;99.90;;;;;;4257513;27;20047;-85
2021/12/22 04:01:51;;;;;;;13.93;6.00;;;-2.00;99.90;;;;;;4227877;28;20073;-85
2021/12/22 04:03:58;;;;;;;14.48;6.70;;;-2.10;99.90;;;;;;4243078;28;20079;-84
2021/12/22 04:05:59;;;;;;;16.00;6.25;;;-2.20;99.90;;;;;;4245177;28;20039;-85
2021/12/22 04:08:00;;;;;;;12.68;6.35;;;-2.20;99.90;;;;;;4243910;28;20117;-85
2021/12/22 04:10:19;;;;;;;14.30;5.82;;;-1.40;99.90;;;;;;4244437;28;20044;-85
2021/12/22 04:12:22;;;;;;;18.58;6.22;;;-1.40;99.90;;;;;;4243379;28;20061;-85
2021/12/22 04:14:24;;;;;;;15.45;6.32;;;-1.20;99.90;;;;;;4242294;28;20051;-85
2021/12/22 04:16:32;;;;;;;15.25;6.63;;;-3.30;99.90;;;;;;4239686;28;20083;-84
2021/12/22 04:18:40;;;;;;;12.63;6.10;;;-2.30;99.90;;;;;;4226722;28;20048;-84
2021/12/22 04:20:42;;;;;;;15.03;5.97;;;-2.30;99.90;;;;;;4228508;28;20158;-84
2021/12/22 04:22:50;;;;;;;12.30;6.28;;;-2.40;99.90;;;;;;4248728;28;20040;-85
2021/12/22 04:24:52;;;;;;;17.00;6.35;;;-1.20;99.90;;;;;;4228218;28;20086;-85
2021/12/22 04:26:53;;;;;;;15.18;6.03;;;-2.40;99.90;;;;;;4243568;28;20047;-86
2021/12/22 04:28:56;;;;;;;14.30;5.78;;;-2.40;99.90;;;;;;4253676;27;20043;-86
2021/12/22 04:30:58;;;;;;;14.63;6.22;;;-2.50;99.90;;;;;;4261869;27;20507;-86
2021/12/22 04:33:01;;;;;;;13.02;6.50;;;-2.50;99.90;;;;;;4244821;28;20055;-86
2021/12/22 04:35:03;;;;;;;14.68;6.53;;;-2.20;99.90;;;;;;4252207;27;20047;-86
2021/12/22 04:37:07;;;;;;;13.10;6.13;;;-2.40;99.90;;;;;;4227673;28;20051;-85
2021/12/22 04:39:10;;;;;;;14.98;6.55;;;-2.50;99.90;;;;;;4244796;28;20048;-86
2021/12/22 04:41:13;;;;;;;14.70;7.70;;;-2.50;99.90;;;;;;4244693;28;20040;-86
2021/12/22 04:43:18;;;;;;;18.95;6.72;;;-2.60;99.90;;;;;;4246491;28;20049;-86
2021/12/22 04:45:27;;;;;;;16.80;6.93;;;-2.50;99.90;;;;;;4244882;28;20090;-85
2021/12/22 04:47:29;;;;;;;;;;;-2.70;99.90;;;;;;4242610;28;20143;-86
2021/12/22 04:49:32;;;;;;;14.93;5.88;;;-2.70;99.90;;;;;;4262231;27;19923;-86
2021/12/22 04:51:36;;;;;;;15.57;6.22;;;-2.70;99.90;;;;;;4262233;27;20047;-85
2021/12/22 04:56:17;;;;;;;15.50;6.03;;;-1.40;99.90;;;;;;4248182;27;20086;-85
2021/12/22 04:58:20;;;;;;;16.45;5.70;;;-2.70;99.90;;;;;;4241472;28;20100;-84
2021/12/22 05:00:26;;;;;;;13.82;5.95;;;-2.80;99.90;;;;;;4244399;28;20114;-85
2021/12/22 05:02:31;;;;;;;17.73;5.93;;;-2.80;99.90;;;;;;4245577;28;20048;-85
2021/12/22 05:04:36;;;;;;;16.20;5.88;;;-2.40;99.90;;;;;;4228523;28;20082;-84
2021/12/22 05:06:40;;;;;;;13.07;6.18;;;-2.80;99.90;;;;;;4228307;28;20048;-85
2021/12/22 05:08:42;;;;;;;16.13;5.95;;;-2.90;99.90;;;;;;4246667;28;20452;-84
2021/12/22 05:10:48;;;;;;;14.35;5.68;;;-2.80;99.90;;;;;;4245701;28;20123;-84
2021/12/22 05:12:51;;;;;;;15.25;5.88;;;-2.90;99.90;;;;;;4227377;28;20124;-85
2021/12/22 05:14:53;;;;;;;14.25;5.00;;;-2.80;99.90;;;;;;4244927;28;20047;-85
2021/12/22 05:16:59;;;;;;;11.38;5.60;;;-2.90;99.90;;;;;;4244267;28;20051;-85
2021/12/22 05:19:14;;;;;;;14.00;5.43;;;-2.40;99.90;;;;;;4226463;28;20077;-86
2021/12/22 05:21:18;;;;;;;12.50;5.95;;;-4.00;99.90;;;;;;4244311;28;20126;-86
2021/12/22 05:23:27;;;;;;;11.60;5.53;;;-2.90;99.90;;;;;;4244252;28;20040;-85
2021/12/22 05:25:29;;;;;;;13.38;6.18;;;-2.90;99.90;;;;;;4257597;27;20477;-85
2021/12/22 05:27:36;;;;;;;15.10;5.50;;;-1.70;99.90;;;;;;4261969;27;20070;-85
2021/12/22 05:29:40;;;;;;;17.48;5.45;;;-2.60;99.90;;;;;;4246027;27;20043;-85
2021/12/22 05:31:43;;;;;;;13.80;6.05;;;-1.80;99.90;;;;;;4243683;28;20107;-84
2021/12/22 05:33:52;;;;;;;18.58;5.00;;;-3.20;99.90;;;;;;4243774;28;20043;-85
2021/12/22 05:35:54;;;;;;;17.23;5.97;;;-3.00;99.90;;;;;;4242118;28;20031;-85
2021/12/22 05:37:57;;;;;;;18.80;5.38;;;-2.10;99.90;;;;;;4225121;28;20055;-85
2021/12/22 05:40:07;;;;;;;16.52;5.57;;;-3.00;99.90;;;;;;4244359;28;20108;-85
2021/12/22 05:42:13;;;;;;;12.00;5.32;;;-3.10;99.90;;;;;;4227567;28;20152;-85
2021/12/22 05:44:20;;;;;;;12.23;5.60;;;-3.00;99.90;;;;;;4228514;28;20130;-85
2021/12/22 05:46:23;;;;;;;14.38;5.43;;;-3.10;99.90;;;;;;4248294;27;20047;-85
2021/12/22 05:48:32;;;;;;;11.48;5.05;;;-2.20;99.90;;;;;;4261237;27;20172;-86
2021/12/22 05:50:34;;;;;;;16.67;6.00;;;-3.00;99.90;;;;;;4244670;28;20050;-85
2021/12/22 05:52:39;;;;;;;14.68;5.68;;;-3.10;99.90;;;;;;4244833;28;20044;-85
2021/12/22 05:54:51;;;;;;;15.73;5.13;;;-3.10;99.90;;;;;;4253778;28;20035;-85
2021/12/22 05:56:52;;;;;;;13.48;5.65;;;-3.10;99.90;;;;;;4227831;28;20059;-86
2021/12/22 05:59:03;;;;;;;14.50;5.47;;;-2.50;99.90;;;;;;4235573;28;20474;-86
2021/12/22 06:01:12;;;;;;;15.32;6.03;;;-3.10;99.90;;;;;;4261868;28;20102;-85
2021/12/22 06:03:21;;;;;;;12.68;5.53;;;-3.20;99.90;;;;;;4231599;28;20040;-86
2021/12/22 06:05:26;;;;;;;11.90;5.15;;;-3.10;99.90;;;;;;4257032;28;20106;-86
2021/12/22 06:07:32;;;;;;;14.73;6.57;;;-3.20;99.90;;;;;;4260786;28;20098;-86
2021/12/22 06:09:36;;;;;;;15.43;5.45;;;-3.10;99.90;;;;;;4259383;28;20050;-86
2021/12/22 06:11:43;;;;;;;13.00;5.55;;;-3.60;99.90;;;;;;4259558;28;20039;-86
2021/12/22 06:13:50;;;;;;;18.33;6.20;;;-1.90;99.90;;;;;;4238449;28;20052;-86
2021/12/22 06:15:51;;;;;;;14.95;5.93;;;-3.10;99.90;;;;;;4242716;28;20042;-85
2021/12/22 06:17:58;;;;;;;14.95;5.28;;;-1.80;99.90;;;;;;4230306;28;20137;-86
2021/12/22 06:20:06;;;;;;;16.90;5.65;;;-3.20;99.90;;;;;;4243337;28;20070;-86
2021/12/22 06:22:17;;;;;;;14.32;5.90;;;-3.20;99.90;;;;;;4260660;28;20047;-85
2021/12/22 06:24:19;;;;;;;15.95;5.75;;;-3.10;99.90;;;;;;4252525;28;20510;-85
2021/12/22 06:26:23;;;;;;;14.43;5.55;;;-1.80;99.90;;;;;;4226744;28;20044;-85
2021/12/22 06:28:29;;;;;;;14.70;5.57;;;-3.20;99.90;;;;;;4247867;28;20078;-85
2021/12/22 06:30:32;;;;;;;12.80;5.45;;;-3.60;99.90;;;;;;4255503;28;20544;-85
2021/12/22 06:32:37;;;;;;;13.82;5.70;;;-3.20;99.90;;;;;;4244081;28;20046;-85
2021/12/22 06:34:38;;;;;;;15.45;5.75;;;-3.10;99.90;;;;;;4243593;28;20047;-85
2021/12/22 06:36:40;;;;;;;16.83;5.60;;;-3.60;99.90;;;;;;4225188;28;20052;-85
2021/12/22 06:38:48;;;;;;;18.52;6.32;;;-3.10;99.90;;;;;;4225679;28;20060;-86
2021/12/22 06:40:54;;;;;;;12.57;5.13;;;-3.90;99.90;;;;;;4210033;28;20131;-85
2021/12/22 06:43:00;;;;;;;13.73;5.13;;;-3.20;99.90;;;;;;4225126;28;20048;-85
2021/12/22 06:45:07;;;;;;;17.70;5.57;;;-3.60;99.90;;;;;;4209529;28;20044;-86
2021/12/22 06:47:10;;;;;;;13.95;5.72;;;-3.10;99.90;;;;;;4229436;28;20054;-86
2021/12/22 06:49:18;;;;;;;20.42;5.82;;;-3.10;99.90;;;;;;4229666;28;20071;-86
2021/12/22 06:51:26;;;;;;;13.53;6.53;;;-3.10;99.90;;;;;;4215663;28;20075;-85
2021/12/22 06:53:34;;;;;;;15.95;5.40;;;-3.10;99.90;;;;;;4234508;28;20097;-85
2021/12/22 06:55:37;;;;;;;12.83;5.00;;;-3.70;99.90;;;;;;4231286;28;20040;-85
2021/12/22 06:57:42;;;;;;;16.83;5.45;;;-3.10;99.90;;;;;;4231470;28;20280;-86
2021/12/22 06:59:57;;;;;;;14.05;5.88;;;-4.10;99.90;;;;;;4231831;28;20044;-86
2021/12/22 07:01:59;;;;;;;13.95;5.97;;;-3.20;99.90;;;;;;4231807;28;20523;-86
2021/12/22 07:04:20;;;;;;;17.42;5.15;;;-4.00;99.90;;;;;;4232005;28;20056;-86
2021/12/22 07:06:31;;;;;;;27.70;6.70;;;-3.10;99.90;;;;;;4228783;28;20040;-85
2021/12/22 07:08:37;;;;;;;16.63;5.25;;;-3.10;99.90;;;;;;4219075;28;20044;-85
2021/12/22 07:10:47;;;;;;;17.90;5.90;;;-2.10;99.90;;;;;;4233835;28;20054;-85
2021/12/22 07:12:49;;;;;;;14.38;5.53;;;-3.10;99.90;;;;;;4227864;28;20096;-85
2021/12/22 07:14:52;;;;;;;15.98;6.45;;;-3.20;99.90;;;;;;4233296;28;20044;-85
2021/12/22 07:16:56;;;;;;;18.20;5.95;;;-3.90;99.90;;;;;;4228389;28;20048;-85
2021/12/22 07:19:03;;;;;;;12.38;5.78;;;-3.20;99.90;;;;;;4210450;28;20464;-85
2021/12/22 07:21:11;;;;;;;14.00;5.07;;;-3.80;99.90;;;;;;4210510;28;20067;-85
2021/12/22 07:23:15;;;;;;;14.88;6.25;;;-3.40;99.90;;;;;;4227299;28;20079;-86
2021/12/22 07:25:24;;;;;;;18.45;6.20;;;-3.20;99.90;;;;;;4228782;28;20048;-85
2021/12/22 07:27:25;;;;;;;;;;;-3.20;99.90;;;;;;4228364;28;20040;-84
2021/12/22 07:29:30;;;;;;;18.30;5.72;;;-3.20;99.90;;;;;;4224994;28;19950;-86
2021/12/22 07:31:33;;;;;;;20.35;6.10;;;-2.60;99.90;;;;;;4208316;28;20049;-85
2021/12/22 07:33:38;;;;;;;22.20;6.93;;;-3.20;99.90;;;;;;4209423;28;20096;-84
2021/12/22 07:35:51;;;;;;;20.90;6.70;;;-3.10;99.90;;;;;;4241261;28;20070;-85
2021/12/22 07:38:07;;;;;;;13.95;5.93;;;-3.10;99.90;;;;;;4226732;28;20080;-85
2021/12/22 07:40:19;;;;;;;18.05;6.30;;;-3.10;99.90;;;;;;4224657;28;20052;-84
2021/12/22 07:42:22;;;;;;;17.35;7.03;;;-2.30;99.90;;;;;;4243464;28;20040;-84
2021/12/22 07:44:32;;;;;;;19.42;6.32;;;-3.10;99.90;;;;;;4242661;28;20503;-84
2021/12/22 07:46:36;;;;;;;15.10;6.35;;;-3.00;99.90;;;;;;4249515;27;20043;-84
2021/12/22 07:48:41;;;;;;;17.23;6.57;;;-2.10;99.90;;;;;;4237669;28;20078;-86
2021/12/22 07:50:42;;;;;;;13.65;5.20;;;-3.00;99.90;;;;;;4245510;28;20044;-85
2021/12/22 07:52:45;;;;;;;18.77;6.03;;;-3.00;99.90;;;;;;4252644;27;20081;-85
2021/12/22 07:54:59;;;;;;;17.70;6.88;;;-2.90;99.90;;;;;;4244155;27;20051;-85
2021/12/22 07:57:10;;;;;;;15.35;5.80;;;-2.80;99.90;;;;;;4261113;27;20039;-86
2021/12/22 07:59:14;;;;;;;18.67;6.65;;;-2.80;99.90;;;;;;4251224;27;20043;-86
2021/12/22 08:01:15;;;;;;;13.98;5.60;;;-1.60;99.90;;;;;;4247765;28;20039;-86
2021/12/22 08:03:21;;;;;;;13.88;5.63;;;-2.80;99.90;;;;;;4248036;28;20054;-86
2021/12/22 08:05:24;;;;;;;19.25;5.57;;;-2.10;99.90;;;;;;4242003;28;20043;-86
2021/12/22 08:07:29;;;;;;;17.13;5.68;;;-3.00;99.90;;;;;;4247311;28;20043;-86
2021/12/22 08:09:30;;;;;;;16.65;5.78;;;-2.70;99.90;;;;;;4230305;28;20027;-85
2021/12/22 08:11:39;;;;;;;16.52;5.90;;;-2.40;99.90;;;;;;4229262;28;20044;-86
2021/12/22 08:13:41;;;;;;;16.13;5.82;;;-2.60;99.90;;;;;;4244022;28;20040;-85
2021/12/22 08:15:45;;;;;;;16.27;5.47;;;-2.60;99.90;;;;;;4243528;28;20102;-85
2021/12/22 08:17:52;;;;;;;16.40;5.63;;;-2.50;99.90;;;;;;4245613;28;20051;-85
2021/12/22 08:19:57;;;;;;;15.75;5.35;;;-1.60;99.90;;;;;;4245271;28;20090;-85
2021/12/22 08:22:03;;;;;;;15.65;5.50;;;-3.60;99.70;;;;;;4248261;27;20100;-87
2021/12/22 08:24:05;;;;;;;13.38;5.60;;;-2.30;99.90;;;;;;4260798;27;20048;-86
2021/12/22 08:26:08;;;;;;;12.45;5.30;;;-2.40;99.90;;;;;;4239971;28;20046;-86
2021/12/22 08:28:11;;;;;;;16.70;5.40;;;-1.60;99.90;;;;;;4258733;27;20051;-85
2021/12/22 08:30:14;;;;;;;15.30;5.50;;;-1.40;99.90;;;;;;4242124;28;20052;-85
2021/12/22 08:32:25;;;;;;;13.55;5.47;;;-2.90;99.70;;;;;;4243287;28;20502;-86
2021/12/22 08:34:36;;;;;;;14.30;5.65;;;-1.70;99.90;;;;;;4241591;28;20043;-85
2021/12/22 08:39:07;;;;;;;17.15;5.53;;;-1.90;99.90;;;;;;4223171;28;20051;-85
2021/12/22 08:41:09;;;;;;;14.07;5.50;;;-1.80;99.70;;;;;;4215928;28;20058;-85
2021/12/22 08:43:14;;;;;;;17.48;4.72;;;-1.10;99.80;;;;;;4205167;28;20053;-85
2021/12/22 08:45:15;;;;;;;14.23;5.20;;;-1.10;99.80;;;;;;4223632;28;20040;-85
2021/12/22 08:47:17;;;;;;;14.93;5.60;;;-1.00;99.80;;;;;;4223660;28;20119;-85
2021/12/22 08:49:20;;;;;;;10.13;4.82;;;-1.30;99.90;;;;;;4222955;28;20075;-85
2021/12/22 08:51:23;;;;;;;12.80;5.13;;;-0.90;99.40;;;;;;4215846;28;20048;-84
2021/12/22 08:53:26;;;;;;;13.25;5.05;;;-2.10;99.10;;;;;;4243553;28;20080;-85
2021/12/22 08:55:29;;;;;;;13.40;5.40;;;-1.60;99.30;;;;;;4221878;28;20111;-85
2021/12/22 08:57:43;;;;;;;13.15;4.95;;;-1.80;99.20;;;;;;4225092;28;20040;-85
2021/12/22 08:59:49;;;;;;;12.95;5.20;;;-1.40;99.10;;;;;;4224056;28;20048;-85
2021/12/22 09:01:52;;;;;;;10.13;4.60;;;-2.00;99.30;;;;;;4205697;28;20185;-85
2021/12/22 09:03:59;;;;;;;11.30;5.00;;;-1.60;99.20;;;;;;4205402;28;20404;-85
2021/12/22 09:06:12;;;;;;;14.25;5.85;;;-1.10;99.20;;;;;;4222346;28;20164;-84
2021/12/22 09:08:14;;;;;;;17.63;5.93;;;-1.00;98.80;;;;;;4205208;28;20087;-84
2021/12/22 09:10:22;;;;;;;16.20;5.10;;;0.40;99.30;;;;;;4226373;28;20048;-85
2021/12/22 09:12:26;;;;;;;14.15;4.97;;;-1.00;99.00;;;;;;4240359;28;20146;-85
2021/12/22 09:14:30;;;;;;;14.25;4.90;;;-0.60;98.90;;;;;;4239796;28;20047;-85
2021/12/22 09:16:31;;;;;;;14.70;5.60;;;-0.90;99.20;;;;;;4231459;28;20128;-85
2021/12/22 09:18:35;;;;;;;12.48;5.38;;;0.60;98.90;;;;;;4222319;28;20040;-85
2021/12/22 09:20:37;;;;;;;15.20;5.72;;;-0.80;98.80;;;;;;4222282;28;20088;-85
2021/12/22 09:22:42;;;;;;;14.15;5.40;;;-0.70;98.90;;;;;;4242201;28;20048;-85
2021/12/22 09:24:43;;;;;;;14.20;4.63;;;-0.60;98.60;;;;;;4242463;28;20329;-85
2021/12/22 09:26:47;;;;;;;12.02;5.00;;;1.00;98.90;;;;;;4238885;28;20130;-85
2021/12/22 09:28:51;;;;;;;19.45;6.07;;;-0.30;98.80;;;;;;4222708;28;20090;-85
2021/12/22 09:30:53;;;;;;;17.90;5.90;;;-0.40;98.20;;;;;;4218323;28;20102;-85
2021/12/22 09:32:54;;;;;;;12.50;5.82;;;-0.40;98.70;;;;;;4235340;28;20132;-85
2021/12/22 09:34:56;;;;;;;12.02;5.80;;;0.80;98.80;;;;;;4235220;28;20051;-85
2021/12/22 09:36:57;;;;;;;16.25;6.07;;;-0.30;98.30;;;;;;4237695;27;20087;-85
2021/12/22 09:39:04;;;;;;;11.60;4.75;;;0.80;98.50;;;;;;4246148;27;20062;-86
2021/12/22 09:41:07;;;;;;;17.17;5.07;;;0.50;98.10;;;;;;4237767;28;20081;-86
2021/12/22 09:43:09;;;;;;;16.65;5.70;;;0.50;97.60;;;;;;4234741;28;20043;-86
2021/12/22 09:45:11;;;;;;;15.23;5.78;;;0.90;97.30;;;;;;4236334;28;20071;-85
2021/12/22 09:47:26;;;;;;;15.95;4.70;;;0.80;97.30;;;;;;4218138;28;20146;-86
2021/12/22 09:54:04;;;;;;;13.40;4.55;;;0.80;97.10;;;;;;4233921;28;20047;-85
2021/12/22 09:56:10;;;;;;;14.02;4.80;;;0.20;97.10;;;;;;4233473;28;20453;-86
2021/12/22 09:58:14;;;;;;;11.50;5.15;;;1.00;97.30;;;;;;4219101;28;20514;-86
2021/12/22 10:00:14;;;;;;;14.25;5.15;;;1.40;97.80;;;;;;4216861;28;20383;-85
2021/12/22 10:02:18;;;;;;;10.18;4.85;;;0.50;97.70;;;;;;4235132;28;20039;-86
2021/12/22 10:04:19;;;;;;;16.85;4.82;;;0.40;97.60;;;;;;4237594;28;20070;-86
2021/12/22 10:06:22;;;;;;;13.55;4.68;;;0.30;97.80;;;;;;4251653;28;20048;-86
2021/12/22 10:08:26;;;;;;;15.80;5.07;;;0.30;97.90;;;;;;4251400;28;20099;-86
2021/12/22 10:10:30;;;;;;;17.05;6.85;;;0.40;97.80;;;;;;4251763;27;20039;-85
2021/12/22 10:12:31;;;;;;;19.13;6.07;;;0.40;97.80;;;;;;4252360;27;20102;-86
2021/12/22 10:14:33;;;;;;;13.63;4.78;;;1.70;98.60;;;;;;4234113;28;20098;-86
2021/12/22 10:16:45;;;;;;;15.30;5.57;;;0.40;97.60;;;;;;4246451;27;20047;-86
2021/12/22 10:19:00;;;;;;;15.02;5.47;;;0.80;97.60;;;;;;4233806;28;20164;-86
2021/12/22 10:21:21;;;;;;;10.88;4.78;;;0.40;97.50;;;;;;4235200;28;20164;-86
2021/12/22 10:23:27;;;;;;;13.10;5.00;;;0.50;97.60;;;;;;4250531;27;20410;-85
2021/12/22 10:25:31;;;;;;;10.98;4.80;;;0.50;97.40;;;;;;4254419;27;20518;-86
2021/12/22 10:27:33;;;;;;;17.13;5.13;;;1.40;97.90;;;;;;4258114;27;20039;-86
2021/12/22 10:29:39;;;;;;;14.20;5.68;;;2.00;97.80;;;;;;4224802;28;20051;-86
2021/12/22 10:31:46;;;;;;;13.07;5.50;;;1.50;97.90;;;;;;4222893;28;20048;-86
2021/12/22 10:33:48;;;;;;;18.45;5.85;;;0.50;97.30;;;;;;4242733;27;20047;-85
2021/12/22 10:35:57;;;;;;;11.50;5.10;;;1.30;97.70;;;;;;4235703;28;20126;-85
2021/12/22 10:37:59;;;;;;;14.32;5.00;;;0.50;97.30;;;;;;4224049;28;20060;-85
2021/12/22 10:40:22;;;;;;;11.65;5.13;;;2.10;97.60;;;;;;4220662;28;20036;-86
2021/12/22 10:42:39;;;;;;;15.27;5.82;;;1.50;97.40;;;;;;4218474;28;20079;-86
2021/12/22 10:44:42;;;;;;;11.57;5.25;;;1.60;97.30;;;;;;4201124;28;20056;-86
2021/12/22 10:46:44;;;;;;;14.48;5.72;;;1.20;96.80;;;;;;4218803;28;20092;-86
2021/12/22 10:49:20;;;;;;;11.27;4.95;;;1.20;97.00;;;;;;4220262;28;20123;-85
2021/12/22 10:51:30;;;;;;;15.77;5.72;;;1.20;97.10;;;;;;4202085;28;20865;-85
2021/12/22 10:53:44;;;;;;;16.63;5.32;;;0.20;96.80;;;;;;4217590;28;20063;-86
2021/12/22 10:55:52;;;;;;;12.35;4.93;;;0.00;97.00;;;;;;4201784;28;20048;-85
2021/12/22 10:57:54;;;;;;;11.70;4.70;;;0.20;97.20;;;;;;4202517;28;20048;-85
2021/12/22 10:59:55;;;;;;;14.25;4.88;;;1.70;97.70;;;;;;4219059;28;20052;-84
2021/12/22 11:02:07;;;;;;;17.92;4.78;;;0.90;97.50;;;;;;4201083;28;20048;-83
2021/12/22 11:04:18;;;;;;;13.18;5.15;;;1.50;97.40;;;;;;4200199;28;20049;-84
2021/12/22 11:06:30;;;;;;;14.43;6.30;;;0.90;97.30;;;;;;4216554;28;20136;-84
2021/12/22 11:08:31;;;;;;;12.90;5.38;;;0.90;97.10;;;;;;4218577;28;20133;-83